CDT,Max TemperatureF,Mean TemperatureF,Min TemperatureF,Max Dew PointF,MeanDew PointF,Min DewpointF,Max Humidity, Mean Humidity, Min Humidity, Max Sea Level PressureIn, Mean Sea Level PressureIn, Min Sea Level PressureIn, Max VisibilityMiles, Mean VisibilityMiles, Min VisibilityMiles, Max Wind SpeedMPH, Mean Wind SpeedMPH, Max Gust SpeedMPH,PrecipitationIn, CloudCover, Events, WindDirDegrees
2013-9-1,91,83,74,74,70,66,94,72,50,29.96,29.89,29.85,10,8,4,17,4,23,0.00,3,Thunderstorm,292
2013-9-2,84,77,69,74,71,68,97,81,65,29.98,29.92,29.86,10,8,1,20,5,28,0.90,7,Rain-Thunderstorm,211
2013-9-3,88,78,67,73,69,64,100,73,46,30.01,29.95,29.90,10,8,4,12,4,15,0.00,3,,338
2013-9-4,87,75,63,67,64,61,100,70,40,30.12,30.06,29.99,10,9,2,8,2,13,0.00,2,,339
2013-9-5,88,74,60,66,62,57,100,68,36,30.16,30.12,30.09,10,8,2,10,2,13,0.00,2,Fog,9
2013-9-6,89,76,62,68,63,59,100,70,39,30.15,30.11,30.05,10,8,1,7,1,10,0.00,1,Fog,143
2013-9-7,90,78,65,71,67,62,100,71,41,30.11,30.05,30.00,10,9,4,7,2,10,0.00,1,,170
2013-9-8,92,80,67,72,69,66,100,75,49,30.03,29.99,29.94,10,8,5,9,2,14,0.00,1,Fog,216
2013-9-9,92,82,71,72,71,68,93,71,49,30.08,30.03,29.99,10,8,3,10,4,15,0.00,3,Fog,144
2013-9-10,91,82,72,72,70,67,93,70,47,30.18,30.13,30.08,10,9,6,13,5,21,0.00,2,,127
2013-9-11,91,81,70,71,68,64,93,69,44,30.21,30.15,30.09,10,9,6,9,3,14,0.00,1,,124
2013-9-12,93,80,67,70,68,65,100,71,41,30.10,30.02,29.92,10,7,1,17,4,23,0.37,4,Fog-Rain-Thunderstorm,240
2013-9-13,84,73,61,70,63,51,100,67,34,29.98,29.94,29.90,10,6,0,15,7,20,0.00,3,Fog,9
2013-9-14,79,65,51,59,53,50,100,70,39,30.06,30.02,29.97,10,10,10,12,3,18,0.00,0,,14
2013-9-15,85,70,55,64,60,55,93,68,43,30.12,30.09,30.05,10,10,10,12,3,17,0.00,2,Fog,131
2013-9-16,89,74,59,64,59,54,100,66,31,30.16,30.12,30.08,10,9,6,12,4,21,0.00,3,Fog,48
2013-9-17,87,75,63,68,64,61,93,71,48,30.17,30.12,30.07,10,10,7,15,6,18,0.00,2,,117
2013-9-18,82,75,67,67,63,60,84,70,55,30.20,30.14,30.08,10,10,10,14,7,17,0.00,3,,126
2013-9-19,87,77,66,66,64,63,93,71,48,30.17,30.10,30.04,10,10,10,10,5,14,0.00,2,,134
2013-9-20,88,76,64,70,65,62,93,69,45,30.05,29.96,29.84,10,10,7,12,6,16,0.37,5,Rain,146
2013-9-21,76,66,56,72,66,54,100,80,60,29.86,29.81,29.73,10,5,1,16,6,23,2.68,7,Rain,343
2013-9-22,79,65,51,56,53,51,100,70,39,29.91,29.87,29.85,10,10,7,16,8,22,0.00,0,,21
2013-9-23,82,67,51,61,57,50,96,72,48,29.98,29.94,29.90,10,10,10,13,5,18,0.00,1,,106
2013-9-24,75,69,63,66,64,60,93,86,79,29.99,29.92,29.84,10,9,2,16,8,21,T,7,Rain,110
2013-9-25,80,73,66,70,66,64,100,79,58,29.89,29.84,29.80,10,7,2,10,3,12,0.03,6,Rain,122
2013-9-26,84,74,64,66,63,60,100,74,47,30.01,29.94,29.86,10,10,6,9,4,21,0.00,5,,102
2013-9-27,82,70,58,64,60,57,97,71,45,30.13,30.07,30.01,10,10,10,10,4,16,0.00,1,,119
2013-9-28,79,69,58,60,57,53,97,70,42,30.21,30.13,30.08,10,10,10,15,6,18,0.00,2,,123
2013-9-29,76,67,57,61,57,54,93,74,54,30.12,30.07,30.01,10,10,10,15,6,18,T,5,Rain,122
2013-9-30,77,70,62,62,59,58,93,75,57,30.07,30.02,29.98,10,10,8,12,5,21,T,6,Rain,131